Time;durP1;ratioP1;P1;durP2;ratioP2;P2;SDS_P1;SDS_P2;PMS_P1;PMS_P2;Temp;Humidity;BMP_temperature;BMP_pressure;BME280_temperature;BME280_humidity;BME280_pressure;Samples;Min_cycle;Max_cycle;Signal;HPM_P1;HPM_P2
2022/01/20 06:51:41;;;;;;;6.42;4.53;;;;;;;15.46;41.72;100254.36;1958876;72;27982;-68
2022/01/20 06:54:30;;;;;;;5.85;4.42;;;;;;;15.02;38.98;100252.45;1903670;73;28004;-68
2022/01/20 06:57:20;;;;;;;3.83;3.40;;;;;;;15.28;37.45;100239.27;1902150;75;28143;-68
2022/01/20 07:00:12;;;;;;;3.67;3.07;;;;;;;16.09;38.13;100245.44;1931236;73;28062;-68
2022/01/20 07:03:01;;;;;;;4.12;2.70;;;;;;;16.76;38.01;100235.34;1911577;73;28253;-69
2022/01/20 07:05:49;;;;;;;2.98;2.50;;;;;;;17.34;37.61;100239.36;1919988;73;28087;-69
2022/01/20 07:08:39;;;;;;;2.83;2.53;;;;;;;17.77;37.07;100243.57;1903857;73;28153;-70
2022/01/20 07:11:29;;;;;;;2.92;2.40;;;;;;;18.17;36.71;100245.02;1912251;73;28250;-69
2022/01/20 07:14:17;;;;;;;2.15;2.05;;;;;;;18.48;36.27;100246.20;1911511;73;28177;-69
2022/01/20 07:17:07;;;;;;;2.17;1.90;;;;;;;18.74;36.01;100237.53;1902019;75;28098;-69
2022/01/20 07:19:56;;;;;;;2.55;2.00;;;;;;;18.93;35.65;100239.09;1919126;73;28200;-69
2022/01/20 07:22:46;;;;;;;2.08;1.92;;;;;;;19.11;35.40;100225.88;1911837;73;28975;-69
2022/01/20 07:25:34;;;;;;;1.92;1.82;;;;;;;19.25;35.20;100230.96;1916320;73;28215;-69
2022/01/20 07:28:27;;;;;;;2.00;1.80;;;;;;;19.40;34.98;100233.63;1910252;73;28191;-69
2022/01/20 07:31:20;;;;;;;1.90;1.52;;;;;;;19.51;34.86;100233.94;1906554;73;28098;-69
2022/01/20 07:34:06;;;;;;;1.80;1.70;;;;;;;19.63;34.73;100226.06;1902004;75;28180;-68
2022/01/20 07:36:54;;;;;;;1.70;1.60;;;;;;;19.67;34.59;100233.68;1902170;75;28043;-69
2022/01/20 07:39:43;;;;;;;1.90;1.57;;;;;;;19.68;34.51;100233.14;1909448;73;28256;-68
2022/01/20 07:42:32;;;;;;;2.05;1.85;;;;;;;19.79;34.47;100251.70;1911162;73;28526;-68
2022/01/20 07:45:30;;;;;;;1.90;1.80;;;;;;;19.83;34.40;100258.43;1908357;73;28218;-68
2022/01/20 07:48:37;;;;;;;1.70;1.60;;;;;;;19.90;34.33;100251.14;1902255;75;28264;-72
2022/01/20 07:51:30;;;;;;;1.55;1.50;;;;;;;19.91;34.25;100246.00;1902093;73;28249;-70
2022/01/20 07:54:21;;;;;;;1.60;1.50;;;;;;;19.90;34.31;100245.69;1897320;74;28106;-68
2022/01/20 07:57:10;;;;;;;1.50;1.40;;;;;;;19.98;34.28;100249.61;1902251;75;28031;-68
2022/01/20 07:59:59;;;;;;;1.62;1.52;;;;;;;20.01;34.20;100247.86;1918988;73;28024;-68
2022/01/20 08:02:50;;;;;;;1.57;1.53;;;;;;;20.04;34.19;100243.89;1909963;74;28051;-67
2022/01/20 08:05:40;;;;;;;1.60;1.50;;;;;;;20.07;34.25;100244.87;1901550;75;28198;-68
2022/01/20 08:08:28;;;;;;;1.47;1.40;;;;;;;20.04;34.43;100242.53;1893705;74;28136;-70
2022/01/20 08:11:20;;;;;;;1.60;1.50;;;;;;;20.05;34.48;100238.23;1890966;74;28516;-68
2022/01/20 08:14:10;;;;;;;2.17;1.50;;;;;;;20.09;34.56;100226.41;1889523;74;28101;-67
2022/01/20 08:16:59;;;;;;;1.52;1.47;;;;;;;20.13;34.56;100226.33;1913070;73;28086;-69
2022/01/20 08:19:49;;;;;;;1.60;1.50;;;;;;;20.16;34.63;100223.20;1889141;75;28037;-69
2022/01/20 08:22:38;;;;;;;3.40;1.42;;;;;;;20.09;34.73;100219.08;1889340;75;28170;-70
2022/01/20 08:25:30;;;;;;;1.60;1.50;;;;;;;20.14;34.88;100219.30;1901339;75;28112;-70
2022/01/20 08:28:22;;;;;;;1.60;1.50;;;;;;;20.21;34.97;100233.81;1889488;74;28211;-68
2022/01/20 08:31:11;;;;;;;1.60;1.50;;;;;;;20.19;35.04;100235.91;1908028;73;28029;-69
2022/01/20 08:34:00;;;;;;;1.60;1.50;;;;;;;20.23;35.17;100224.13;1901353;75;29187;-68
2022/01/20 08:36:54;;;;;;;2.20;1.50;;;;;;;20.21;35.22;100222.91;1901536;75;27716;-70
2022/01/20 08:39:41;;;;;;;1.45;1.35;;;;;;;20.20;35.18;100217.66;1903302;74;28089;-69
2022/01/20 08:42:30;;;;;;;1.53;1.43;;;;;;;20.20;35.03;100218.51;1912649;73;28105;-69
2022/01/20 08:45:22;;;;;;;1.57;1.47;;;;;;;20.14;34.99;100216.56;1897599;74;28153;-70
2022/01/20 08:48:13;;;;;;;1.87;1.70;;;;;;;20.13;35.02;100227.69;1918251;73;28112;-71
2022/01/20 08:51:18;;;;;;;1.72;1.62;;;;;;;20.11;34.95;100222.45;1914384;73;28112;-70
2022/01/20 08:54:21;;;;;;;1.60;1.50;;;;;;;20.09;34.84;100211.41;1901641;73;28072;-70
2022/01/20 08:57:12;;;;;;;2.27;1.87;;;;;;;20.09;34.81;100221.81;1906705;73;28218;-69
2022/01/20 09:00:00;;;;;;;1.90;1.80;;;;;;;20.10;34.75;100222.63;1906109;73;28181;-70
2022/01/20 09:02:51;;;;;;;2.37;1.60;;;;;;;20.08;34.69;100217.38;1906073;73;28132;-70
2022/01/20 09:05:40;;;;;;;2.05;1.87;;;;;;;20.08;34.74;100218.75;1886326;75;28120;-69
2022/01/20 09:08:30;;;;;;;1.83;1.70;;;;;;;20.16;34.71;100222.69;1915599;74;28297;-69
2022/01/20 09:11:29;;;;;;;1.87;1.77;;;;;;;20.18;34.71;100232.88;1915594;74;28106;-70
2022/01/20 09:17:20;;;;;;;1.70;1.60;;;;;;;20.21;34.81;100237.91;1888496;75;28130;-72
2022/01/20 09:20:10;;;;;;;1.70;1.60;;;;;;;20.22;34.75;100238.27;1903404;74;28125;-71
2022/01/20 09:22:59;;;;;;;1.72;1.62;;;;;;;20.24;34.79;100240.27;1898153;75;28182;-71
2022/01/20 09:25:49;;;;;;;1.90;1.80;;;;;;;20.25;34.79;100238.40;1889237;75;31158;-69
2022/01/20 09:28:38;;;;;;;2.10;1.65;;;;;;;20.23;34.82;100237.76;1901055;75;28035;-69
2022/01/20 09:31:30;;;;;;;1.93;1.57;;;;;;;20.29;34.80;100239.67;1902667;74;28060;-73
2022/01/20 09:34:18;;;;;;;1.90;1.80;;;;;;;20.26;34.83;100234.61;1907700;74;28437;-72
2022/01/20 09:37:07;;;;;;;2.02;1.60;;;;;;;20.24;34.93;100233.45;1922118;73;28488;-72
2022/01/20 09:39:56;;;;;;;1.73;1.63;;;;;;;20.29;34.92;100239.16;1920802;73;28082;-70
2022/01/20 09:42:59;;;;;;;1.65;1.55;;;;;;;20.28;34.92;100231.19;1854212;77;28182;-69
2022/01/20 09:45:51;;;;;;;1.82;1.72;;;;;;;20.24;35.14;100229.36;1851850;77;28095;-71
2022/01/20 09:48:40;;;;;;;1.50;1.50;;;;;;;20.23;35.23;100220.03;1849119;77;28393;-71
2022/01/20 09:51:33;;;;;;;1.52;1.42;;;;;;;20.21;35.32;100224.81;1851972;77;28270;-73
2022/01/20 09:54:26;;;;;;;1.60;1.50;;;;;;;20.18;35.41;100223.33;1871633;76;28130;-69
2022/01/20 09:57:16;;;;;;;1.60;1.50;;;;;;;20.14;35.54;100224.75;1851044;76;28530;-71
2022/01/20 10:00:09;;;;;;;1.30;1.30;;;;;;;20.14;35.61;100219.30;1843494;76;28262;-68
2022/01/20 10:03:20;;;;;;;4.17;1.95;;;;;;;20.13;35.65;100215.42;1876515;74;28193;-69
2022/01/20 10:06:10;;;;;;;1.70;1.60;;;;;;;20.12;35.66;100214.56;1901613;75;28156;-69
2022/01/20 10:09:02;;;;;;;1.42;1.32;;;;;;;20.11;35.48;100217.50;1897429;75;28254;-70
2022/01/20 10:11:56;;;;;;;1.82;1.70;;;;;;;20.11;35.40;100203.36;1901759;75;28028;-69
2022/01/20 10:15:08;;;;;;;1.50;1.40;;;;;;;20.10;35.32;100212.56;1901521;75;28164;-70
2022/01/20 10:18:15;;;;;;;2.52;1.60;;;;;;;20.11;35.26;100215.62;1927189;73;28751;-75
2022/01/20 10:21:06;;;;;;;1.62;1.52;;;;;;;20.03;35.34;100217.66;1919687;73;28146;-74
2022/01/20 10:24:08;;;;;;;1.70;1.60;;;;;;;20.10;35.37;100219.90;1903949;73;28396;-73
2022/01/20 10:27:02;;;;;;;1.50;1.40;;;;;;;20.16;35.39;100227.30;1917001;73;28131;-73
2022/01/20 10:30:03;;;;;;;1.67;1.40;;;;;;;20.20;35.44;100223.97;1914256;73;28093;-71
2022/01/20 10:32:55;;;;;;;1.47;1.37;;;;;;;20.27;35.49;100217.20;1902508;73;28175;-73
2022/01/20 10:35:44;;;;;;;2.67;1.60;;;;;;;20.27;35.53;100226.24;1905972;73;28094;-74
2022/01/20 10:38:34;;;;;;;1.50;1.40;;;;;;;20.30;35.63;100219.55;1927224;73;28219;-71
2022/01/20 10:41:39;;;;;;;1.98;1.40;;;;;;;20.33;35.62;100227.30;1901516;75;28113;-70
2022/01/20 10:44:29;;;;;;;1.50;1.40;;;;;;;20.37;35.70;100221.78;1909109;73;28097;-69
2022/01/20 10:47:22;;;;;;;2.80;1.37;;;;;;;20.30;35.74;100223.12;1901613;75;28151;-68
2022/01/20 10:50:18;;;;;;;1.60;1.50;;;;;;;20.23;35.79;100220.03;1901345;75;28060;-69
2022/01/20 10:53:18;;;;;;;1.50;1.40;;;;;;;20.17;35.89;100218.91;1902253;73;28206;-69
2022/01/20 10:56:07;;;;;;;1.20;1.20;;;;;;;20.18;35.94;100217.02;1909159;74;28104;-68
2022/01/20 10:58:58;;;;;;;1.65;1.50;;;;;;;20.17;35.99;100215.33;1921108;73;28040;-70
2022/01/20 11:02:04;;;;;;;1.85;1.30;;;;;;;20.15;36.03;100214.69;1908277;73;28242;-69
2022/01/20 11:04:53;;;;;;;1.50;1.40;;;;;;;20.19;36.03;100211.36;1901677;73;28195;-70
2022/01/20 11:07:43;;;;;;;1.98;1.50;;;;;;;20.23;36.15;100206.39;1901374;75;28229;-70
2022/01/20 11:10:32;;;;;;;2.50;1.50;;;;;;;20.27;36.23;100194.87;1901228;75;28122;-69
2022/01/20 11:13:23;;;;;;;2.62;1.67;;;;;;;20.30;36.20;100196.35;1901307;75;28109;-69
2022/01/20 11:16:13;;;;;;;1.35;1.30;;;;;;;20.26;36.19;100184.14;1901535;75;28208;-71
2022/01/20 11:19:02;;;;;;;1.63;1.53;;;;;;;20.25;36.22;100188.78;1911665;73;28033;-73
2022/01/20 11:21:52;;;;;;;1.90;1.80;;;;;;;20.33;36.29;100173.58;1878113;75;28117;-72
2022/01/20 11:24:43;;;;;;;2.60;1.70;;;;;;;20.31;36.25;100185.23;1903279;73;28101;-71
2022/01/20 11:27:42;;;;;;;1.60;1.50;;;;;;;20.33;36.33;100176.31;1896596;75;28206;-69
2022/01/20 11:30:39;;;;;;;1.80;1.70;;;;;;;20.37;36.25;100172.67;1901941;73;28160;-69
2022/01/20 11:33:43;;;;;;;6.92;2.90;;;;;;;20.27;36.28;100172.20;1922226;73;28133;-73
2022/01/20 11:36:32;;;;;;;2.40;2.00;;;;;;;20.19;36.44;100169.08;1919476;73;28121;-66
2022/01/20 11:39:22;;;;;;;3.27;2.20;;;;;;;20.21;36.36;100166.98;1901535;75;28204;-66
2022/01/20 11:42:14;;;;;;;4.70;2.00;;;;;;;20.23;36.36;100162.23;1924012;73;28083;-67
2022/01/20 11:45:22;;;;;;;2.37;1.73;;;;;;;20.19;36.32;100166.34;1929484;73;28198;-67
2022/01/20 11:48:23;;;;;;;2.08;1.90;;;;;;;20.21;36.25;100168.34;1920865;73;28031;-67
2022/01/20 11:51:11;;;;;;;1.90;1.80;;;;;;;20.16;36.30;100159.11;1915781;73;28093;-67
2022/01/20 11:54:05;;;;;;;3.60;1.90;;;;;;;20.13;36.25;100153.53;1907655;73;28083;-67
2022/01/20 11:57:09;;;;;;;3.10;1.85;;;;;;;20.16;36.22;100150.41;1924196;73;28195;-67
2022/01/20 12:00:04;;;;;;;2.25;2.08;;;;;;;20.18;36.16;100143.38;1905386;73;28617;-67
2022/01/20 12:02:55;;;;;;;2.00;1.75;;;;;;;20.11;36.15;100143.35;1903423;73;31032;-67
2022/01/20 12:05:51;;;;;;;2.10;2.00;;;;;;;20.11;36.13;100131.59;1901477;75;28514;-67
2022/01/20 12:09:00;;;;;;;1.80;1.70;;;;;;;20.13;36.16;100135.80;1904699;73;28142;-71
2022/01/20 12:11:49;;;;;;;2.00;1.90;;;;;;;20.18;36.48;100121.04;1924222;73;28187;-67
2022/01/20 12:14:38;;;;;;;2.17;1.53;;;;;;;20.20;36.74;100110.77;1924142;73;28149;-66
2022/01/20 12:17:29;;;;;;;2.83;2.00;;;;;;;20.26;36.80;100109.97;1916266;73;28591;-67
2022/01/20 12:20:18;;;;;;;2.00;1.80;;;;;;;20.29;36.87;100108.20;1919382;73;28043;-67
2022/01/20 12:23:06;;;;;;;2.20;2.00;;;;;;;20.30;37.00;100100.34;1903954;73;28155;-68
2022/01/20 12:26:05;;;;;;;2.37;2.17;;;;;;;20.35;37.03;100081.45;1904543;73;28140;-66
2022/01/20 12:29:03;;;;;;;2.40;1.92;;;;;;;20.40;37.12;100076.22;1920794;73;28122;-68
2022/01/20 12:31:55;;;;;;;2.17;1.80;;;;;;;20.41;37.14;100088.83;1878440;75;28094;-68
2022/01/20 12:34:44;;;;;;;2.30;2.10;;;;;;;20.33;37.08;100084.91;1908643;73;28191;-68
2022/01/20 12:37:35;;;;;;;2.20;1.80;;;;;;;20.31;36.96;100077.45;1907996;73;28046;-68
2022/01/20 12:40:24;;;;;;;1.90;1.80;;;;;;;20.29;36.80;100067.28;1902034;73;28121;-68
2022/01/20 12:43:13;;;;;;;2.52;1.80;;;;;;;20.26;36.69;100068.20;1901242;75;28125;-69
2022/01/20 12:46:02;;;;;;;2.45;1.90;;;;;;;20.25;36.57;100058.34;1901331;75;28171;-68
2022/01/20 12:48:57;;;;;;;3.15;1.82;;;;;;;20.27;36.49;100057.62;1929062;73;28031;-68
2022/01/20 12:51:50;;;;;;;2.20;2.00;;;;;;;20.33;36.31;100059.51;1912957;73;28127;-69
2022/01/20 12:54:39;;;;;;;2.15;2.00;;;;;;;20.30;36.33;100055.33;1933030;73;28036;-70
2022/01/20 12:57:28;;;;;;;2.50;1.87;;;;;;;20.31;36.40;100055.63;1901481;75;28184;-69
2022/01/20 13:00:16;;;;;;;2.55;1.90;;;;;;;20.38;36.44;100055.13;1901757;73;28059;-69
2022/01/20 13:03:04;;;;;;;2.20;2.00;;;;;;;20.44;36.51;100042.55;1904476;73;28211;-71
2022/01/20 13:05:57;;;;;;;2.08;1.85;;;;;;;20.44;36.65;100034.37;1901157;75;28091;-73
2022/01/20 13:08:43;;;;;;;1.87;1.77;;;;;;;20.49;36.72;100034.59;1911979;73;28120;-72
2022/01/20 13:11:37;;;;;;;2.87;1.87;;;;;;;20.45;36.73;100024.60;1906421;73;28175;-73
2022/01/20 13:14:36;;;;;;;2.10;1.90;;;;;;;20.50;36.72;100019.88;1901579;75;28090;-69
2022/01/20 13:17:26;;;;;;;1.95;1.85;;;;;;;20.54;36.65;100008.34;1896074;75;28187;-72
2022/01/20 13:20:21;;;;;;;3.80;1.95;;;;;;;20.44;36.76;99997.53;1909396;73;28124;-72
2022/01/20 13:23:54;;;;;;;1.95;1.85;;;;;;;20.48;36.76;100002.36;1901236;73;28029;-71
2022/01/20 13:26:08;;;;;;;2.05;1.82;;;;;;;20.53;36.79;99997.64;1902569;73;28129;-72
2022/01/20 13:29:05;;;;;;;2.05;1.85;;;;;;;20.56;36.64;99992.59;1899095;73;28157;-70
2022/01/20 13:31:58;;;;;;;2.00;1.90;;;;;;;20.56;36.59;99976.22;1920323;73;28120;-69
2022/01/20 13:35:01;;;;;;;2.00;1.90;;;;;;;20.60;36.55;99974.77;1911071;73;28249;-68
2022/01/20 13:38:03;;;;;;;4.17;1.90;;;;;;;20.51;36.42;99977.91;1901450;75;28188;-68
2022/01/20 13:40:51;;;;;;;2.55;1.80;;;;;;;20.45;36.45;99985.55;1901281;75;28203;-68
2022/01/20 13:47:10;;;;;;;2.52;1.87;;;;;;;20.44;36.19;99992.89;1904355;73;28100;-68
2022/01/20 13:49:58;;;;;;;3.22;1.60;;;;;;;20.35;36.23;99977.77;1901588;75;28108;-69
2022/01/20 13:52:47;;;;;;;2.83;1.80;;;;;;;20.35;36.24;99976.95;1901621;75;28198;-69
2022/01/20 13:55:39;;;;;;;1.90;1.80;;;;;;;20.35;36.10;99987.32;1854234;73;41372;-70
2022/01/20 13:58:32;;;;;;;1.85;1.75;;;;;;;20.41;36.19;99982.41;1785156;79;28461;-70
2022/01/20 14:01:21;;;;;;;2.00;1.80;;;;;;;20.44;36.32;99978.43;1796439;78;28275;-73
2022/01/20 14:04:09;;;;;;;2.27;1.72;;;;;;;20.49;36.35;99969.91;1801463;78;28430;-73
2022/01/20 14:06:59;;;;;;;2.90;1.70;;;;;;;20.51;36.54;99987.47;1813125;78;28434;-73
2022/01/20 14:09:49;;;;;;;1.90;1.80;;;;;;;20.54;36.61;99987.87;1798879;78;28352;-74
2022/01/20 14:12:37;;;;;;;1.80;1.70;;;;;;;20.56;36.70;99980.31;1776568;79;28575;-72
2022/01/20 14:15:28;;;;;;;1.90;1.80;;;;;;;20.57;36.78;99962.05;1778424;80;28356;-71
2022/01/20 14:18:21;;;;;;;1.85;1.75;;;;;;;20.58;36.88;99978.20;1815393;78;27950;-71
2022/01/20 14:21:09;;;;;;;1.60;1.50;;;;;;;20.60;36.92;99975.28;1789108;78;28007;-71
2022/01/20 14:23:58;;;;;;;2.00;1.80;;;;;;;20.64;36.86;99980.63;1784619;80;28589;-75
2022/01/20 14:26:46;;;;;;;1.90;1.65;;;;;;;20.65;36.86;99979.05;1807584;78;28374;-70
2022/01/20 14:29:34;;;;;;;2.33;1.70;;;;;;;20.65;36.91;99988.59;1803997;78;28275;-68
2022/01/20 14:32:23;;;;;;;1.90;1.70;;;;;;;20.70;36.94;99992.61;1792225;78;28527;-70
2022/01/20 14:35:12;;;;;;;1.90;1.80;;;;;;;20.66;36.91;99979.38;1784778;80;28490;-72
2022/01/20 14:38:02;;;;;;;1.70;1.60;;;;;;;20.68;36.87;99985.45;1806773;78;28240;-73
2022/01/20 14:40:55;;;;;;;2.55;1.70;;;;;;;20.72;36.84;99975.50;1804058;78;28291;-68
2022/01/20 14:43:43;;;;;;;2.00;1.60;;;;;;;20.72;36.75;99976.86;1795865;78;33983;-69
2022/01/20 14:46:32;;;;;;;1.60;1.50;;;;;;;20.65;36.73;99985.05;1798273;78;28474;-68
2022/01/20 14:49:20;;;;;;;2.02;1.80;;;;;;;20.60;36.72;99979.38;1776522;79;28416;-70
2022/01/20 14:52:09;;;;;;;1.67;1.57;;;;;;;20.58;36.60;99974.66;1791578;79;28397;-68
2022/01/20 14:54:58;;;;;;;1.80;1.70;;;;;;;20.57;36.61;99973.81;1788851;79;28444;-69
2022/01/20 14:57:47;;;;;;;1.80;1.70;;;;;;;20.55;36.60;99970.98;1783459;79;28460;-69
2022/01/20 15:00:35;;;;;;;1.90;1.50;;;;;;;20.51;36.64;99966.45;1771529;80;28354;-77
2022/01/20 15:03:24;;;;;;;1.70;1.60;;;;;;;20.53;36.64;99962.16;1816601;78;28257;-74
2022/01/20 15:06:12;;;;;;;1.85;1.55;;;;;;;20.54;36.70;99971.50;1769312;79;28403;-78
2022/01/20 15:09:03;;;;;;;1.85;1.75;;;;;;;20.59;36.64;99955.33;1774038;79;28349;-74
2022/01/20 15:11:52;;;;;;;2.05;1.70;;;;;;;20.61;36.73;99970.97;1798530;78;28207;-76
2022/01/20 15:14:40;;;;;;;1.75;1.65;;;;;;;20.67;36.68;99972.03;1761172;79;28630;-77
2022/01/20 15:17:28;;;;;;;1.70;1.60;;;;;;;20.61;36.63;99966.88;1702732;83;28742;-74
2022/01/20 15:20:16;;;;;;;1.70;1.60;;;;;;;20.59;36.63;99964.89;1702677;84;29104;-77
2022/01/20 15:23:05;;;;;;;1.60;1.50;;;;;;;20.60;36.72;99961.64;1748764;81;28550;-77
2022/01/20 15:25:54;;;;;;;1.70;1.60;;;;;;;20.60;36.67;99962.48;1810725;78;28253;-77
2022/01/20 15:28:45;;;;;;;1.50;1.40;;;;;;;20.63;36.67;99966.69;1777636;79;28472;-76
2022/01/20 15:31:36;;;;;;;3.10;1.77;;;;;;;20.64;36.63;99966.47;1762615;80;28501;-59
2022/01/20 15:34:25;;;;;;;2.52;1.92;;;;;;;20.61;36.69;99972.86;1817948;78;28260;-75
2022/01/20 15:37:13;;;;;;;45.70;42.13;;;;;;;20.69;37.21;99982.21;1801166;78;28456;-77
2022/01/20 15:40:02;;;;;;;2.10;1.50;;;;;;;20.96;36.50;99980.28;1772076;79;28423;-78
2022/01/20 15:42:51;;;;;;;1.60;1.50;;;;;;;21.06;36.08;99988.41;1732794;82;28440;-80
2022/01/20 15:45:39;;;;;;;1.60;1.50;;;;;;;21.10;35.84;99988.29;1746344;81;28430;-77
2022/01/20 15:48:28;;;;;;;1.60;1.50;;;;;;;21.13;35.62;99987.02;1769293;79;28418;-72
2022/01/20 15:51:16;;;;;;;1.52;1.42;;;;;;;21.16;35.54;99981.98;1805729;78;28789;-77
2022/01/20 15:54:06;;;;;;;2.15;1.80;;;;;;;20.85;35.75;99980.41;1769921;79;28410;-74
2022/01/20 15:56:54;;;;;;;1.60;1.50;;;;;;;20.70;36.05;99988.52;1801246;78;38644;-75
2022/01/20 15:59:43;;;;;;;1.57;1.30;;;;;;;20.58;36.39;99989.12;1766605;79;28397;-72
2022/01/20 16:02:31;;;;;;;1.77;1.50;;;;;;;20.53;36.63;99984.84;1801063;78;28191;-70
2022/01/20 16:05:21;;;;;;;1.52;1.40;;;;;;;20.49;36.83;99999.93;1779569;79;28353;-72
2022/01/20 16:08:12;;;;;;;2.50;1.30;;;;;;;20.52;36.90;100000.89;1808315;78;28300;-73
2022/01/20 16:11:00;;;;;;;2.20;1.30;;;;;;;20.49;37.09;99996.39;1782439;80;28469;-73
2022/01/20 16:13:48;;;;;;;1.37;1.27;;;;;;;20.48;37.24;100002.88;1784959;78;28250;-73
2022/01/20 16:16:36;;;;;;;1.40;1.30;;;;;;;20.53;37.32;100004.47;1794860;77;28284;-76
2022/01/20 16:19:25;;;;;;;2.50;1.40;;;;;;;20.51;37.38;100012.84;1793646;77;28721;-75
2022/01/20 16:22:13;;;;;;;2.20;1.50;;;;;;;20.52;37.51;100010.44;1793828;79;28380;-75
2022/01/20 16:25:02;;;;;;;1.60;1.40;;;;;;;20.50;37.55;100007.08;1797711;78;28333;-74
2022/01/20 16:27:51;;;;;;;1.60;1.50;;;;;;;20.55;37.58;100025.56;1811087;78;28329;-74
2022/01/20 16:30:40;;;;;;;1.45;1.32;;;;;;;20.57;37.62;100019.37;1807826;78;28210;-74
2022/01/20 16:33:28;;;;;;;1.60;1.50;;;;;;;20.55;37.62;100023.68;1803563;78;28189;-73
2022/01/20 16:36:16;;;;;;;1.50;1.40;;;;;;;20.55;37.64;100037.84;1778418;78;28210;-74
2022/01/20 16:39:05;;;;;;;2.50;1.40;;;;;;;20.53;37.65;100029.88;1795228;78;38533;-73
2022/01/20 16:41:53;;;;;;;3.40;1.40;;;;;;;20.53;37.76;100026.30;1794986;78;28333;-77
2022/01/20 16:44:42;;;;;;;1.62;1.50;;;;;;;20.54;37.72;100041.61;1801569;78;28308;-78
2022/01/20 16:47:30;;;;;;;1.70;1.60;;;;;;;20.48;37.68;100025.56;1808785;78;28977;-76
2022/01/20 16:50:20;;;;;;;2.02;1.70;;;;;;;20.47;37.63;100037.51;1808076;78;28229;-75
2022/01/20 16:53:08;;;;;;;2.30;1.62;;;;;;;20.41;37.55;100031.53;1806335;78;28245;-76
2022/01/20 16:55:57;;;;;;;2.12;1.60;;;;;;;20.42;37.55;100031.02;1803623;78;28450;-77
2022/01/20 16:58:46;;;;;;;1.87;1.77;;;;;;;20.39;37.51;100047.79;1808280;78;28434;-80
2022/01/20 17:01:35;;;;;;;2.22;1.75;;;;;;;20.25;36.89;100056.47;1813203;78;28391;-76
2022/01/20 17:04:23;;;;;;;3.77;2.10;;;;;;;20.35;36.89;100061.53;1825336;78;28346;-79
2022/01/20 17:07:12;;;;;;;3.87;1.98;;;;;;;20.36;36.91;100062.69;1814364;77;28337;-77
2022/01/20 17:10:01;;;;;;;2.00;1.80;;;;;;;20.41;36.96;100063.42;1822343;77;28500;-72
2022/01/20 17:12:49;;;;;;;2.12;1.92;;;;;;;20.40;37.02;100057.12;1822875;77;28538;-76
2022/01/20 17:15:38;;;;;;;2.20;1.92;;;;;;;20.38;37.00;100055.64;1774488;78;28530;-78
2022/01/20 17:18:27;;;;;;;2.90;1.93;;;;;;;20.35;37.05;100069.17;1751305;80;28078;-77
2022/01/20 17:21:15;;;;;;;2.75;2.08;;;;;;;20.35;37.03;100071.90;1802363;78;27943;-76
2022/01/20 17:24:04;;;;;;;1.90;1.80;;;;;;;20.36;36.99;100064.56;1768059;80;28512;-75
2022/01/20 17:26:53;;;;;;;2.60;2.10;;;;;;;20.35;36.99;100062.35;1766679;80;28446;-77
2022/01/20 17:29:42;;;;;;;2.13;1.93;;;;;;;20.35;36.99;100060.98;1810692;78;28248;-80
2022/01/20 17:32:30;;;;;;;3.30;2.00;;;;;;;20.32;37.04;100066.03;1809545;77;28452;-81
2022/01/20 17:35:20;;;;;;;2.10;2.00;;;;;;;20.33;37.01;100065.81;1785473;80;28733;-78
2022/01/20 17:38:09;;;;;;;2.20;2.10;;;;;;;20.32;36.98;100055.97;1781476;78;28434;-78
2022/01/20 17:40:57;;;;;;;1.87;1.62;;;;;;;20.32;37.06;100062.78;1813100;78;28409;-78
2022/01/20 17:43:46;;;;;;;3.15;1.60;;;;;;;20.28;37.08;100054.67;1816910;77;28359;-79
2022/01/20 17:46:35;;;;;;;2.33;1.90;;;;;;;20.28;37.10;100055.22;1786926;78;28472;-78
2022/01/20 17:49:23;;;;;;;2.22;1.87;;;;;;;20.29;37.08;100045.45;1768970;80;28043;-78
2022/01/20 17:52:12;;;;;;;2.55;1.70;;;;;;;20.30;37.11;100053.97;1773537;78;28477;-76
2022/01/20 17:55:01;;;;;;;2.02;1.82;;;;;;;20.30;37.09;100058.58;1808568;78;28249;-75
2022/01/20 17:57:50;;;;;;;1.90;1.80;;;;;;;20.28;37.12;100054.67;1811987;78;27961;-76
2022/01/20 18:00:38;;;;;;;2.05;1.72;;;;;;;20.27;37.11;100055.73;1801494;77;28234;-76
2022/01/20 18:03:27;;;;;;;2.45;1.87;;;;;;;20.29;37.05;100063.19;1787393;78;28362;-76
2022/01/20 18:06:15;;;;;;;1.87;1.77;;;;;;;20.28;37.06;100063.41;1809491;78;28237;-77
2022/01/20 18:09:04;;;;;;;2.20;2.00;;;;;;;20.33;37.04;100069.91;1743994;79;28357;-77
2022/01/20 18:11:52;;;;;;;1.60;1.50;;;;;;;20.35;36.92;100065.08;1767488;78;28526;-78
2022/01/20 18:14:41;;;;;;;1.97;1.80;;;;;;;20.35;36.93;100058.81;1785760;78;28443;-76
2022/01/20 18:17:29;;;;;;;2.97;1.67;;;;;;;20.40;36.85;100075.38;1783983;78;28351;-76
2022/01/20 18:20:18;;;;;;;1.70;1.60;;;;;;;20.38;36.86;100071.50;1767359;79;28377;-76
2022/01/20 18:23:11;;;;;;;2.02;1.90;;;;;;;20.40;36.81;100078.10;1800979;78;28494;-76
2022/01/20 18:25:59;;;;;;;1.72;1.62;;;;;;;20.37;36.80;100069.83;1782522;78;28409;-78
2022/01/20 18:28:50;;;;;;;2.15;1.67;;;;;;;20.37;36.79;100065.74;1773522;78;28425;-76
2022/01/20 18:31:38;;;;;;;1.80;1.70;;;;;;;20.38;36.72;100071.50;1767535;78;28414;-76
2022/01/20 18:34:28;;;;;;;1.63;1.53;;;;;;;20.38;36.75;100061.95;1783208;78;28408;-76
2022/01/20 18:37:16;;;;;;;1.80;1.70;;;;;;;20.40;36.75;100065.83;1773369;78;28457;-76
2022/01/20 18:40:07;;;;;;;1.75;1.50;;;;;;;20.38;36.74;100073.38;1782646;78;28384;-77
2022/01/20 18:42:55;;;;;;;1.67;1.57;;;;;;;20.36;36.75;100070.87;1798218;78;28304;-76
2022/01/20 18:45:43;;;;;;;1.85;1.60;;;;;;;20.35;36.78;100072.45;1808252;78;28895;-75
2022/01/20 18:48:32;;;;;;;1.80;1.65;;;;;;;20.37;36.75;100070.35;1775408;79;28402;-77
2022/01/20 18:51:20;;;;;;;1.50;1.40;;;;;;;20.35;36.73;100067.80;1791435;78;28419;-78
2022/01/20 18:54:09;;;;;;;1.63;1.53;;;;;;;20.39;36.68;100073.19;1774748;78;28190;-77
2022/01/20 18:56:58;;;;;;;1.82;1.40;;;;;;;20.35;36.67;100071.08;1808593;78;28198;-78
2022/01/20 18:59:46;;;;;;;1.80;1.50;;;;;;;20.32;36.60;100063.30;1791068;78;28302;-77
2022/01/20 19:02:35;;;;;;;2.10;1.80;;;;;;;20.33;36.67;100060.87;1810030;77;28306;-76
2022/01/20 19:05:23;;;;;;;1.60;1.50;;;;;;;20.32;36.65;100064.66;1758977;80;28410;-77
2022/01/20 19:08:12;;;;;;;1.60;1.50;;;;;;;20.31;36.64;100063.82;1805388;78;28384;-77
2022/01/20 19:11:00;;;;;;;1.70;1.60;;;;;;;20.30;36.67;100053.13;1782937;78;28891;-78
2022/01/20 19:13:49;;;;;;;1.63;1.53;;;;;;;20.30;36.64;100053.97;1766467;78;28388;-76
2022/01/20 19:16:37;;;;;;;1.47;1.37;;;;;;;20.35;36.63;100060.98;1799393;79;38780;-77
2022/01/20 19:19:26;;;;;;;2.08;1.50;;;;;;;20.33;36.57;100052.17;1778540;78;28336;-76
2022/01/20 19:22:15;;;;;;;1.80;1.60;;;;;;;20.35;36.56;100053.34;1758739;78;28422;-78
2022/01/20 19:25:05;;;;;;;1.70;1.60;;;;;;;20.35;36.56;100051.98;1779478;80;28385;-77
2022/01/20 19:27:54;;;;;;;1.95;1.40;;;;;;;20.32;36.56;100031.92;1781286;78;28353;-78
2022/01/20 19:30:44;;;;;;;1.40;1.30;;;;;;;20.29;36.54;100030.45;1784766;78;28351;-78
2022/01/20 19:33:32;;;;;;;1.30;1.30;;;;;;;20.31;36.52;100041.99;1783203;78;28345;-78
2022/01/20 19:36:20;;;;;;;1.40;1.30;;;;;;;20.32;36.55;100042.33;1765472;78;28941;-78
2022/01/20 19:39:10;;;;;;;1.70;1.40;;;;;;;20.34;36.53;100042.11;1779827;78;28423;-78
2022/01/20 19:41:58;;;;;;;1.50;1.40;;;;;;;20.29;36.51;100048.19;1775392;78;28976;-76
2022/01/20 19:44:47;;;;;;;1.80;1.40;;;;;;;20.30;36.51;100044.94;1788245;77;38667;-73
2022/01/20 19:47:37;;;;;;;1.40;1.30;;;;;;;20.30;36.49;100042.21;1793534;78;28304;-77
2022/01/20 19:50:27;;;;;;;1.47;1.37;;;;;;;20.30;36.50;100038.12;1781875;79;28422;-76
2022/01/20 19:53:21;;;;;;;1.40;1.30;;;;;;;20.27;36.38;100047.55;1782329;78;28341;-77
2022/01/20 19:56:06;;;;;;;1.67;1.37;;;;;;;20.25;36.31;100054.26;1788890;78;28221;-77
2022/01/20 19:58:55;;;;;;;1.60;1.30;;;;;;;20.25;36.25;100051.53;1763940;80;28410;-71
2022/01/20 20:01:48;;;;;;;1.47;1.37;;;;;;;20.26;36.09;100043.64;1801040;78;28403;-73
2022/01/20 20:04:35;;;;;;;1.50;1.40;;;;;;;20.25;36.01;100044.19;1787784;78;28483;-73
2022/01/20 20:07:24;;;;;;;1.55;1.45;;;;;;;20.25;36.06;100036.01;1750379;79;32264;-73
2022/01/20 20:10:14;;;;;;;1.70;1.40;;;;;;;20.26;35.87;100043.13;1819565;78;28197;-71
2022/01/20 20:13:04;;;;;;;1.70;1.25;;;;;;;20.30;35.74;100044.42;1791503;77;28549;-70